Time;durP1;ratioP1;P1;durP2;ratioP2;P2;SDS_P1;SDS_P2;PMS_P1;PMS_P2;Temp;Humidity;BMP_temperature;BMP_pressure;BME280_temperature;BME280_humidity;BME280_pressure;Samples;Min_cycle;Max_cycle;Signal;HPM_P1;HPM_P2
2022/08/21 00:02:33;0.00;0.00;0.62;0.00;0.00;0.62;3.23;2.20;;;27.00;30.00;;;;;;2468854;54;20358;-61
2022/08/21 00:05:21;0.00;0.00;0.62;0.00;0.00;0.62;4.13;2.80;;;27.00;30.00;;;;;;2238735;61;20371;-59
2022/08/21 00:08:07;0.00;0.00;0.62;0.00;0.00;0.62;3.90;2.50;;;27.00;30.00;;;;;;2242452;62;20394;-62
2022/08/21 00:10:51;0.00;0.00;0.62;0.00;0.00;0.62;4.93;2.30;;;27.00;30.00;;;;;;2241677;62;20414;-58
2022/08/21 00:13:36;0.00;0.00;0.62;0.00;0.00;0.62;3.00;1.83;;;27.00;30.00;;;;;;2243099;62;20415;-58
2022/08/21 00:16:22;0.00;0.00;0.62;0.00;0.00;0.62;3.27;2.47;;;26.90;30.00;;;;;;2242616;62;20394;-57
2022/08/21 00:19:08;0.00;0.00;0.62;0.00;0.00;0.62;3.47;2.10;;;27.00;30.00;;;;;;2241691;62;20359;-59
2022/08/21 00:21:55;0.00;0.00;0.62;0.00;0.00;0.62;3.03;2.60;;;26.90;30.00;;;;;;2243126;62;20363;-58
2022/08/21 00:24:40;0.00;0.00;0.62;0.00;0.00;0.62;4.73;2.63;;;26.90;30.10;;;;;;2242654;62;20379;-59
2022/08/21 00:27:26;0.00;0.00;0.62;0.00;0.00;0.62;4.77;2.67;;;26.90;30.10;;;;;;2473826;54;20391;-58
2022/08/21 00:30:14;0.00;0.00;0.62;0.00;0.00;0.62;4.93;2.37;;;26.90;30.10;;;;;;2242570;62;20386;-58
2022/08/21 00:33:00;0.00;0.00;0.62;0.00;0.00;0.62;3.23;2.30;;;26.90;30.20;;;;;;2241764;62;20366;-59
2022/08/21 00:35:45;0.00;0.00;0.62;0.00;0.00;0.62;6.13;3.03;;;26.90;30.20;;;;;;2242280;61;20370;-57
2022/08/21 00:38:31;0.00;0.00;0.62;0.00;0.00;0.62;3.77;2.30;;;26.90;30.20;;;;;;2241708;62;20367;-56
2022/08/21 00:41:17;0.00;0.00;0.62;0.00;0.00;0.62;4.20;2.60;;;26.90;30.30;;;;;;2241636;62;20606;-59
2022/08/21 00:44:02;0.00;0.00;0.62;0.00;0.00;0.62;3.77;2.53;;;26.90;30.30;;;;;;2242406;62;20581;-58
2022/08/21 00:46:47;0.00;0.00;0.62;0.00;0.00;0.62;3.30;2.10;;;26.90;30.30;;;;;;2241170;62;20442;-57
2022/08/21 00:49:31;0.00;0.00;0.62;0.00;0.00;0.62;2.50;1.90;;;26.90;30.30;;;;;;2241510;62;20386;-58
2022/08/21 00:52:23;0.00;0.00;0.62;0.00;0.00;0.62;5.30;2.13;;;26.90;30.30;;;;;;2242118;62;20467;-56
2022/08/21 00:55:11;0.00;0.00;0.62;0.00;0.00;0.62;3.00;2.23;;;27.00;30.30;;;;;;2241197;61;20370;-55
2022/08/21 00:58:00;0.00;0.00;0.62;0.00;0.00;0.62;3.90;2.50;;;27.00;30.30;;;;;;2242181;62;20383;-57
2022/08/21 01:00:48;0.00;0.00;0.62;0.00;0.00;0.62;2.60;2.00;;;27.00;30.30;;;;;;2241516;61;20375;-55
2022/08/21 01:03:34;0.00;0.00;0.62;0.00;0.00;0.62;3.17;2.20;;;27.00;30.30;;;;;;2241374;62;20679;-58
2022/08/21 01:06:20;0.00;0.00;0.62;0.00;0.00;0.62;2.83;1.90;;;27.10;30.40;;;;;;2244244;61;20453;-58
2022/08/21 01:09:05;0.00;0.00;0.62;0.00;0.00;0.62;4.40;2.50;;;27.10;30.40;;;;;;2245555;61;20603;-59
2022/08/21 01:11:51;0.00;0.00;0.62;0.00;0.00;0.62;2.97;2.00;;;27.10;30.40;;;;;;2245386;61;20413;-60
2022/08/21 01:14:36;0.00;0.00;0.62;0.00;0.00;0.62;3.00;1.87;;;27.20;30.50;;;;;;2245709;61;20381;-59
2022/08/21 01:17:22;0.00;0.00;0.62;0.00;0.00;0.62;2.90;2.10;;;27.20;30.40;;;;;;2468065;54;20642;-59
2022/08/21 01:20:11;0.00;0.00;0.62;0.00;0.00;0.62;2.87;2.40;;;27.20;30.40;;;;;;2238026;62;20360;-60
2022/08/21 01:22:57;0.00;0.00;0.62;0.00;0.00;0.62;3.20;2.40;;;27.30;30.50;;;;;;2237618;62;20412;-60
2022/08/21 01:25:42;0.00;0.00;0.62;0.00;0.00;0.62;3.10;2.30;;;27.30;30.50;;;;;;2238528;61;20378;-61
2022/08/21 01:28:31;0.00;0.00;0.62;0.00;0.00;0.62;4.33;2.23;;;27.30;30.50;;;;;;2241691;62;20437;-58
2022/08/21 01:31:19;0.00;0.00;0.62;0.00;0.00;0.62;2.77;2.03;;;27.30;30.50;;;;;;2241645;62;20434;-60
2022/08/21 01:34:05;0.00;0.00;0.62;0.00;0.00;0.62;4.20;2.60;;;27.40;30.50;;;;;;2241300;62;20397;-59
2022/08/21 01:36:50;0.00;0.00;0.62;0.00;0.00;0.62;3.37;2.60;;;27.40;30.50;;;;;;2241595;62;20390;-60
2022/08/21 01:39:36;0.00;0.00;0.62;0.00;0.00;0.62;4.87;3.20;;;27.40;30.50;;;;;;2241199;62;20363;-58
2022/08/21 01:42:21;0.00;0.00;0.62;0.00;0.00;0.62;4.47;2.43;;;27.40;30.50;;;;;;2241805;62;20616;-58
2022/08/21 01:45:08;0.00;0.00;0.62;0.00;0.00;0.62;3.43;2.30;;;27.50;30.60;;;;;;2241377;61;20591;-57
2022/08/21 01:47:53;0.00;0.00;0.62;0.00;0.00;0.62;3.90;2.53;;;27.50;30.50;;;;;;2241145;62;20382;-55
2022/08/21 01:50:38;0.00;0.00;0.62;0.00;0.00;0.62;3.17;2.37;;;27.50;30.50;;;;;;2241785;62;20390;-60
2022/08/21 01:53:22;0.00;0.00;0.62;0.00;0.00;0.62;2.50;1.90;;;27.50;30.50;;;;;;2241525;62;20362;-60
2022/08/21 01:56:12;0.00;0.00;0.62;0.00;0.00;0.62;3.03;2.30;;;27.50;30.50;;;;;;2240948;62;20390;-58
2022/08/21 01:58:56;0.00;0.00;0.62;0.00;0.00;0.62;4.60;2.20;;;27.60;30.50;;;;;;2241817;62;20508;-59
2022/08/21 02:01:42;0.00;0.00;0.62;0.00;0.00;0.62;2.90;2.60;;;27.60;30.50;;;;;;2240901;62;20439;-59
2022/08/21 02:04:27;0.00;0.00;0.62;0.00;0.00;0.62;4.17;2.83;;;27.60;30.50;;;;;;2241719;62;20386;-58
2022/08/21 02:07:11;0.00;0.00;0.62;0.00;0.00;0.62;3.37;2.63;;;27.60;30.50;;;;;;2241320;62;20430;-61
2022/08/21 02:09:56;0.00;0.00;0.62;0.00;0.00;0.62;5.80;2.50;;;27.60;30.50;;;;;;2241199;62;20626;-58
2022/08/21 02:12:42;0.00;0.00;0.62;0.00;0.00;0.62;4.07;2.57;;;27.60;30.50;;;;;;2241776;62;20570;-58
2022/08/21 02:15:29;0.00;0.00;0.62;0.00;0.00;0.62;2.87;2.50;;;27.70;31.30;;;;;;2241264;61;20378;-59
2022/08/21 02:18:14;0.00;0.00;0.62;0.00;0.00;0.62;3.80;2.70;;;27.70;30.60;;;;;;2240976;62;20621;-57
2022/08/21 02:20:59;0.00;0.00;0.62;0.00;0.00;0.62;4.10;2.73;;;27.70;30.60;;;;;;2241811;62;20373;-59
2022/08/21 02:23:44;0.00;0.00;0.62;0.00;0.00;0.62;3.27;2.70;;;27.70;30.60;;;;;;2241465;62;20394;-61
2022/08/21 02:26:29;0.00;0.00;0.62;0.00;0.00;0.62;3.90;2.80;;;27.70;30.60;;;;;;2241461;61;20394;-59
2022/08/21 02:29:15;0.00;0.00;0.62;0.00;0.00;0.62;3.67;2.63;;;27.70;30.60;;;;;;2241447;62;20390;-60
2022/08/21 02:32:00;0.00;0.00;0.62;0.00;0.00;0.62;4.33;2.70;;;27.70;30.60;;;;;;2240977;62;20699;-61
2022/08/21 02:34:45;0.00;0.00;0.62;0.00;0.00;0.62;5.00;3.10;;;27.80;30.70;;;;;;2241642;62;20390;-59
2022/08/21 02:37:30;0.00;0.00;0.62;0.00;0.00;0.62;4.50;2.80;;;27.70;30.60;;;;;;2468288;54;20734;-61
2022/08/21 02:40:17;0.00;0.00;0.62;0.00;0.00;0.62;4.03;2.87;;;27.80;30.60;;;;;;2237352;62;20428;-58
2022/08/21 02:43:04;0.00;0.00;0.62;0.00;0.00;0.62;4.10;3.33;;;27.80;30.60;;;;;;2238608;62;20359;-57
2022/08/21 02:45:51;0.00;0.00;0.62;0.00;0.00;0.62;5.13;2.90;;;27.80;30.60;;;;;;2239643;61;20378;-58
2022/08/21 02:48:37;0.00;0.00;0.62;0.00;0.00;0.62;3.03;2.47;;;27.80;30.60;;;;;;2244571;61;20590;-57
2022/08/21 02:51:22;0.00;0.00;0.62;0.00;0.00;0.62;3.83;2.70;;;27.80;30.60;;;;;;2242136;62;20398;-55
2022/08/21 02:54:07;0.00;0.00;0.62;0.00;0.00;0.62;3.00;2.30;;;27.80;30.60;;;;;;2241556;62;20362;-55
2022/08/21 02:56:52;0.00;0.00;0.62;0.00;0.00;0.62;3.53;2.93;;;27.80;30.60;;;;;;2242185;62;20401;-56
2022/08/21 02:59:37;0.00;0.00;0.62;0.00;0.00;0.62;4.47;3.10;;;27.80;30.60;;;;;;2242134;62;20714;-58
2022/08/21 03:02:22;0.00;0.00;0.62;0.00;0.00;0.62;4.80;2.67;;;27.80;30.60;;;;;;2241509;62;20398;-58
2022/08/21 03:05:09;0.00;0.00;0.62;0.00;0.00;0.62;3.30;2.67;;;27.90;30.70;;;;;;2242156;61;20595;-58
2022/08/21 03:07:55;0.00;0.00;0.62;0.00;0.00;0.62;3.17;2.40;;;27.90;30.70;;;;;;2241952;62;20413;-57
2022/08/21 03:10:43;0.00;0.00;0.62;0.00;0.00;0.62;4.40;3.07;;;27.90;30.70;;;;;;2241665;62;20386;-60
2022/08/21 03:13:28;0.00;0.00;0.62;0.00;0.00;0.62;3.97;3.00;;;27.90;30.70;;;;;;2241894;62;20367;-60
2022/08/21 03:16:13;0.00;0.00;0.62;0.00;0.00;0.62;4.70;3.00;;;27.90;30.70;;;;;;2241249;61;20390;-58
2022/08/21 03:18:59;0.00;0.00;0.62;0.00;0.00;0.62;4.17;3.07;;;27.90;30.70;;;;;;2242395;62;20371;-55
2022/08/21 03:21:44;0.00;0.00;0.62;0.00;0.00;0.62;3.43;3.13;;;27.90;30.70;;;;;;2241823;62;20378;-59
2022/08/21 03:24:29;0.00;0.00;0.62;0.00;0.00;0.62;3.13;2.83;;;27.90;30.70;;;;;;2241550;62;20403;-58
2022/08/21 03:27:13;0.00;0.00;0.62;0.00;0.00;0.62;4.20;2.87;;;27.90;30.70;;;;;;2242136;62;20422;-56
2022/08/21 03:29:58;0.00;0.00;0.62;0.00;0.00;0.62;3.47;3.13;;;27.90;30.70;;;;;;2241994;62;20385;-56
2022/08/21 03:32:43;0.00;0.00;0.62;0.00;0.00;0.62;3.30;2.70;;;27.90;30.70;;;;;;2241816;62;20731;-59
2022/08/21 03:35:29;0.00;0.00;0.62;0.00;0.00;0.62;3.47;3.17;;;27.90;30.70;;;;;;2241641;61;20394;-54
2022/08/21 03:38:15;0.00;0.00;0.62;0.00;0.00;0.62;3.30;3.00;;;27.90;30.70;;;;;;2241698;62;20502;-58
2022/08/21 03:41:00;0.00;0.00;0.62;0.00;0.00;0.62;3.60;3.17;;;27.90;30.70;;;;;;2242281;62;20362;-59
2022/08/21 03:43:45;0.00;0.00;0.62;0.00;0.00;0.62;3.77;2.97;;;27.90;30.60;;;;;;2241913;62;20404;-54
2022/08/21 03:46:30;0.00;0.00;0.62;0.00;0.00;0.62;4.00;3.20;;;27.90;30.60;;;;;;2241199;61;20733;-58
2022/08/21 03:49:14;0.00;0.00;0.62;0.00;0.00;0.62;4.20;3.30;;;27.90;30.60;;;;;;2242290;62;20597;-55
2022/08/21 03:52:01;0.00;0.00;0.62;0.00;0.00;0.62;3.47;2.90;;;27.80;30.60;;;;;;2241926;62;20554;-56
2022/08/21 03:54:46;0.00;0.00;0.62;0.00;0.00;0.62;3.43;2.77;;;27.80;30.50;;;;;;2241555;62;20374;-60
2022/08/21 03:57:31;0.00;0.00;0.62;0.00;0.00;0.62;3.60;2.47;;;27.80;30.50;;;;;;2479079;54;20382;-59
2022/08/21 04:00:18;0.00;0.00;0.62;0.00;0.00;0.62;4.07;2.80;;;27.80;30.50;;;;;;2241442;62;20787;-56
2022/08/21 04:03:04;0.00;0.00;0.62;0.00;0.00;0.62;3.73;2.93;;;27.70;30.50;;;;;;2242225;62;20387;-58
2022/08/21 04:05:49;0.00;0.00;0.62;0.00;0.00;0.62;6.40;3.33;;;27.70;30.40;;;;;;2241611;61;20441;-55
2022/08/21 04:08:35;0.00;0.00;0.62;0.00;0.00;0.62;4.30;2.97;;;27.60;30.40;;;;;;2241426;62;20491;-57
2022/08/21 04:11:21;0.00;0.00;0.62;0.00;0.00;0.62;4.10;2.30;;;27.50;30.40;;;;;;2242142;62;20567;-53
2022/08/21 04:14:06;0.00;0.00;0.62;0.00;0.00;0.62;5.00;2.70;;;27.40;30.40;;;;;;2241711;62;20375;-59
2022/08/21 04:16:50;0.00;0.00;0.62;0.00;0.00;0.62;3.30;2.43;;;27.30;30.50;;;;;;2241314;62;20402;-54
2022/08/21 04:19:35;0.00;0.00;0.62;0.00;0.00;0.62;3.80;2.57;;;27.20;30.50;;;;;;2242124;62;20444;-56
2022/08/21 04:22:19;0.00;0.00;0.62;0.00;0.00;0.62;4.63;3.10;;;27.20;30.60;;;;;;2241315;62;20726;-55
2022/08/21 04:25:07;0.00;0.00;0.62;0.00;0.00;0.62;4.33;2.73;;;27.10;30.70;;;;;;2241925;61;20366;-57
2022/08/21 04:27:52;0.00;0.00;0.62;0.00;0.00;0.62;6.23;2.73;;;27.00;30.70;;;;;;2241779;62;20414;-56
2022/08/21 04:30:37;0.00;0.00;0.62;0.00;0.00;0.62;6.10;2.90;;;26.90;30.80;;;;;;2241271;62;20395;-57
2022/08/21 04:33:23;0.00;0.00;0.62;0.00;0.00;0.62;9.07;2.57;;;26.80;31.00;;;;;;2242055;62;20361;-55
2022/08/21 04:36:09;0.00;0.00;0.62;0.00;0.00;0.62;3.70;2.60;;;26.70;31.20;;;;;;2241492;61;20374;-57
2022/08/21 04:38:53;0.00;0.00;0.62;0.00;0.00;0.62;3.57;2.80;;;26.60;31.10;;;;;;2241273;62;20398;-57
2022/08/21 04:41:41;0.00;0.00;0.62;0.00;0.00;0.62;5.10;2.97;;;26.50;31.00;;;;;;2242065;62;20366;-54
2022/08/21 04:44:25;0.00;0.00;0.62;0.00;0.00;0.62;5.67;2.37;;;26.50;31.00;;;;;;2241688;62;20707;-57
2022/08/21 04:47:10;0.00;0.00;0.62;0.00;0.00;0.62;4.53;2.63;;;26.40;31.40;;;;;;2241781;62;20637;-53
2022/08/21 04:49:54;0.00;0.00;0.62;0.00;0.00;0.62;4.83;2.40;;;26.30;31.50;;;;;;2241669;62;20766;-56
2022/08/21 04:52:39;0.00;0.00;0.62;0.00;0.00;0.62;3.30;2.40;;;26.20;31.50;;;;;;2241224;62;20370;-59
2022/08/21 04:55:27;0.00;0.00;0.62;0.00;0.00;0.62;4.13;2.27;;;26.20;31.80;;;;;;2241890;61;20414;-60
2022/08/21 04:58:18;0.00;0.00;0.62;0.00;0.00;0.62;4.77;2.80;;;26.10;31.90;;;;;;2241739;62;20382;-59
2022/08/21 05:01:07;0.00;0.00;0.62;0.00;0.00;0.62;4.47;2.63;;;26.00;32.00;;;;;;2241193;62;20422;-56
2022/08/21 05:03:57;0.00;0.00;0.62;0.00;0.00;0.62;4.20;2.93;;;25.90;32.10;;;;;;2241796;62;20368;-59
2022/08/21 05:06:46;0.00;0.00;0.62;0.00;0.00;0.62;2.97;1.97;;;25.90;32.30;;;;;;2241078;61;20402;-56
2022/08/21 05:09:32;0.00;0.00;0.62;0.00;0.00;0.62;5.27;2.80;;;25.80;32.90;;;;;;2241978;62;20790;-56
2022/08/21 05:12:17;0.00;0.00;0.62;0.00;0.00;0.62;4.53;2.63;;;25.80;32.50;;;;;;2241546;62;20370;-55
2022/08/21 05:15:05;0.00;0.00;0.62;0.00;0.00;0.62;3.47;2.47;;;25.70;32.50;;;;;;2240867;62;20363;-59
2022/08/21 05:17:50;0.00;0.00;0.62;0.00;0.00;0.62;4.07;2.40;;;25.70;32.60;;;;;;2241949;62;20762;-57
2022/08/21 05:20:35;0.00;0.00;0.62;0.00;0.00;0.62;4.37;2.20;;;25.60;32.60;;;;;;2241426;62;20362;-60
2022/08/21 05:23:20;0.00;0.00;0.62;0.00;0.00;0.62;3.50;2.70;;;25.50;32.70;;;;;;2241238;62;20598;-58
2022/08/21 05:26:05;0.00;0.00;0.62;0.00;0.00;0.62;5.97;2.80;;;25.50;32.90;;;;;;2241827;62;20378;-58
2022/08/21 05:28:50;0.00;0.00;0.62;0.00;0.00;0.62;5.30;2.40;;;25.40;33.00;;;;;;2241458;62;20362;-59
2022/08/21 05:31:36;0.00;0.00;0.62;0.00;0.00;0.62;3.83;2.40;;;25.40;33.00;;;;;;2241979;62;20685;-61
2022/08/21 05:34:24;0.00;0.00;0.62;0.00;0.00;0.62;3.97;2.30;;;25.40;33.10;;;;;;2243750;61;20484;-59
2022/08/21 05:37:12;0.00;0.00;0.62;0.00;0.00;0.62;7.90;3.30;;;25.30;33.00;;;;;;2240981;62;20394;-59
2022/08/21 05:39:57;0.00;0.00;0.62;0.00;0.00;0.62;4.40;2.37;;;25.30;33.10;;;;;;2241964;62;20619;-58
2022/08/21 05:42:41;0.00;0.00;0.62;0.00;0.00;0.62;5.97;2.47;;;25.20;33.10;;;;;;2241479;62;20713;-57
2022/08/21 05:45:30;0.00;0.00;0.62;0.00;0.00;0.62;3.53;2.50;;;25.20;33.20;;;;;;2241021;61;20487;-58
2022/08/21 05:48:18;0.00;0.00;0.62;0.00;0.00;0.62;4.73;2.53;;;25.20;33.30;;;;;;2241916;62;20639;-59
2022/08/21 05:51:08;0.00;0.00;0.62;0.00;0.00;0.62;5.37;2.27;;;25.10;33.20;;;;;;2241357;62;20453;-55
2022/08/21 05:53:52;0.00;0.00;0.62;0.00;0.00;0.62;4.90;2.47;;;25.10;33.40;;;;;;2242024;62;20406;-58
2022/08/21 05:56:37;0.00;0.00;0.62;0.00;0.00;0.62;3.87;2.57;;;25.10;33.50;;;;;;2241240;62;20607;-56
2022/08/21 05:59:22;0.00;0.00;0.62;0.00;0.00;0.62;6.30;2.20;;;25.10;33.70;;;;;;2241041;62;20407;-61
2022/08/21 06:02:11;0.00;0.00;0.62;0.00;0.00;0.62;3.50;2.23;;;25.10;33.80;;;;;;2241876;62;20434;-59
2022/08/21 06:04:58;0.00;0.00;0.62;0.00;0.00;0.62;5.73;2.70;;;25.00;33.70;;;;;;2240967;61;20370;-60
2022/08/21 06:07:42;0.00;0.00;0.62;0.00;0.00;0.62;3.83;2.50;;;25.00;33.80;;;;;;2241071;62;20402;-58
2022/08/21 06:10:27;0.00;0.00;0.62;0.00;0.00;0.62;3.47;2.70;;;25.00;33.90;;;;;;2241793;62;20643;-61
2022/08/21 06:13:12;0.00;0.00;0.62;0.00;0.00;0.62;4.77;2.47;;;25.00;33.90;;;;;;2241483;62;20618;-58
2022/08/21 06:16:07;0.00;0.00;0.62;0.00;0.00;0.62;4.17;2.60;;;25.00;34.00;;;;;;2242322;62;20381;-55
2022/08/21 06:18:52;0.00;0.00;0.62;0.00;0.00;0.62;4.53;2.37;;;25.00;34.00;;;;;;2242309;62;20694;-60
2022/08/21 06:21:38;0.00;0.00;0.62;0.00;0.00;0.62;4.57;2.83;;;25.00;34.00;;;;;;2241696;62;20355;-58
2022/08/21 06:24:24;0.00;0.00;0.62;0.00;0.00;0.62;4.50;2.53;;;25.00;34.00;;;;;;2242068;62;20446;-58
2022/08/21 06:27:09;0.00;0.00;0.62;0.00;0.00;0.62;3.67;2.10;;;25.00;34.10;;;;;;2241948;62;20749;-58
2022/08/21 06:29:56;0.00;0.00;0.62;0.00;0.00;0.62;4.03;2.87;;;25.00;34.10;;;;;;2241367;62;20398;-57
2022/08/21 06:32:41;0.00;0.00;0.62;0.00;0.00;0.62;3.93;2.40;;;25.00;34.10;;;;;;2242406;62;20390;-59
2022/08/21 06:35:26;0.00;0.00;0.62;0.00;0.00;0.62;3.20;2.57;;;25.10;34.20;;;;;;2241782;61;20366;-56
2022/08/21 06:38:12;0.00;0.00;0.62;0.00;0.00;0.62;4.00;2.27;;;25.10;34.20;;;;;;2242507;62;20430;-56
2022/08/21 06:40:57;0.00;0.00;0.62;0.00;0.00;0.62;5.20;2.60;;;25.10;34.20;;;;;;2242020;62;20591;-58
2022/08/21 06:43:42;0.00;0.00;0.62;0.00;0.00;0.62;3.67;2.20;;;25.10;34.30;;;;;;2241283;62;20402;-59
2022/08/21 06:46:29;0.00;0.00;0.62;0.00;0.00;0.62;3.40;2.03;;;25.20;34.30;;;;;;2242131;61;20394;-62
2022/08/21 06:49:14;0.00;0.00;0.62;0.00;0.00;0.62;3.73;2.50;;;25.20;34.30;;;;;;2242058;62;20484;-66
2022/08/21 06:51:58;0.00;0.00;0.62;0.00;0.00;0.62;5.73;2.20;;;25.20;34.30;;;;;;2241786;62;20514;-65
2022/08/21 06:54:45;0.00;0.00;0.62;0.00;0.00;0.62;3.23;2.23;;;25.20;34.20;;;;;;2242297;62;20407;-66
2022/08/21 06:57:30;0.00;0.00;0.62;0.00;0.00;0.62;4.20;2.07;;;25.30;34.30;;;;;;2468940;54;20431;-65
2022/08/21 07:00:15;0.00;0.00;0.62;0.00;0.00;0.62;3.63;2.50;;;25.30;34.20;;;;;;2238442;62;20394;-63
2022/08/21 07:03:00;0.00;0.00;0.62;0.00;0.00;0.62;5.10;2.83;;;25.30;34.30;;;;;;2238115;62;20587;-67
2022/08/21 07:05:45;0.00;0.00;0.62;0.00;0.00;0.62;3.87;2.50;;;25.40;34.30;;;;;;2240370;61;20377;-67
2022/08/21 07:08:30;0.00;0.00;0.62;0.00;0.00;0.62;5.03;2.00;;;25.40;34.30;;;;;;2242314;62;20363;-69
2022/08/21 07:11:19;0.00;0.00;0.62;0.00;0.00;0.62;5.53;2.47;;;25.40;34.30;;;;;;2241946;62;20390;-66
2022/08/21 07:14:05;0.00;0.00;0.62;0.00;0.00;0.62;3.07;2.03;;;25.40;34.40;;;;;;2241652;62;20472;-63
2022/08/21 07:16:51;0.00;0.00;0.62;0.00;0.00;0.62;4.73;2.57;;;25.50;34.50;;;;;;2242069;61;20438;-68
2022/08/21 07:19:36;0.00;0.00;0.62;0.00;0.00;0.62;4.27;2.17;;;25.50;34.40;;;;;;2242045;62;20406;-70
2022/08/21 07:22:21;0.00;0.00;0.62;0.00;0.00;0.62;6.27;3.00;;;25.50;34.30;;;;;;2242139;62;20374;-66
2022/08/21 07:25:07;0.00;0.00;0.62;0.00;0.00;0.62;9.80;3.57;;;25.60;34.20;;;;;;2241342;61;20386;-68
2022/08/21 07:27:53;0.00;0.00;0.62;0.00;0.00;0.62;4.50;2.50;;;25.60;34.10;;;;;;2241536;62;20406;-67
2022/08/21 07:30:38;0.00;0.00;0.62;0.00;0.00;0.62;3.97;1.93;;;25.70;34.10;;;;;;2242359;62;20410;-68
2022/08/21 07:33:23;0.00;0.00;0.62;0.00;0.00;0.62;5.90;2.80;;;25.70;33.90;;;;;;2241967;62;20418;-70
2022/08/21 07:36:08;0.00;0.00;0.62;0.00;0.00;0.62;3.60;2.33;;;25.70;33.80;;;;;;2243415;61;20373;-66
2022/08/21 07:38:53;0.00;0.00;0.62;0.00;0.00;0.62;4.47;2.10;;;25.70;33.70;;;;;;2246282;61;20701;-66
2022/08/21 07:41:38;0.00;0.00;0.62;0.00;0.00;0.62;4.50;2.40;;;25.80;33.70;;;;;;2245851;61;20576;-67
2022/08/21 07:44:24;0.00;0.00;0.62;0.00;0.00;0.62;8.83;2.57;;;25.80;33.70;;;;;;2246209;61;20582;-70
2022/08/21 07:47:09;0.00;0.00;0.62;0.00;0.00;0.62;3.40;2.10;;;25.80;33.60;;;;;;2242001;62;20692;-71
2022/08/21 07:49:54;0.00;0.00;0.62;0.00;0.00;0.62;3.73;2.07;;;25.80;33.50;;;;;;2241736;62;20390;-66
2022/08/21 07:52:39;0.00;0.00;0.62;0.00;0.00;0.62;3.47;2.00;;;25.90;33.60;;;;;;2242335;62;20399;-70
2022/08/21 07:55:24;0.00;0.00;0.62;0.00;0.00;0.62;3.07;2.10;;;25.90;33.60;;;;;;2241763;61;20374;-70
2022/08/21 07:58:09;0.00;0.00;0.62;0.00;0.00;0.62;5.40;2.60;;;26.00;33.60;;;;;;2241463;62;20406;-72
2022/08/21 08:00:55;0.00;0.00;0.62;0.00;0.00;0.62;2.73;1.87;;;26.00;33.50;;;;;;2242167;62;20350;-63
2022/08/21 08:03:41;0.00;0.00;0.62;0.00;0.00;0.62;3.40;1.80;;;26.00;33.40;;;;;;2241884;62;20419;-64
2022/08/21 08:06:26;0.00;0.00;0.62;0.00;0.00;0.62;4.03;1.67;;;26.10;33.40;;;;;;2241455;61;20446;-73
2022/08/21 08:09:12;0.00;0.00;0.62;0.00;0.00;0.62;3.30;1.80;;;26.10;33.30;;;;;;2241837;62;20367;-63
2022/08/21 08:11:56;0.00;0.00;0.62;0.00;0.00;0.62;3.37;2.10;;;26.20;33.30;;;;;;2241372;62;20431;-69
2022/08/21 08:14:42;0.00;0.00;0.62;0.00;0.00;0.62;3.20;1.60;;;26.20;33.10;;;;;;2242099;62;20427;-64
2022/08/21 08:17:29;0.00;0.00;0.62;0.00;0.00;0.62;2.47;1.50;;;26.20;32.90;;;;;;2503596;54;20459;-70
2022/08/21 08:20:16;0.00;0.00;0.62;0.00;0.00;0.62;7.13;1.87;;;26.30;32.90;;;;;;2237482;62;20363;-64
2022/08/21 08:23:01;0.00;0.00;0.62;0.00;0.00;0.62;3.73;2.20;;;26.30;32.60;;;;;;2238028;62;20448;-69
2022/08/21 08:25:46;0.00;0.00;0.62;0.00;0.00;0.62;4.33;2.23;;;26.30;32.50;;;;;;2239460;61;20375;-69
2022/08/21 08:28:32;0.00;0.00;0.62;0.00;0.00;0.62;2.10;1.60;;;26.40;32.40;;;;;;2241513;62;20366;-62
2022/08/21 08:31:16;0.00;0.00;0.62;0.00;0.00;0.62;2.83;1.50;;;26.40;32.40;;;;;;2241858;62;20781;-62
2022/08/21 08:34:03;0.00;0.00;0.62;0.00;0.00;0.62;3.23;1.93;;;26.40;32.20;;;;;;2241366;62;20418;-64
2022/08/21 08:36:48;0.00;0.00;0.62;0.00;0.00;0.62;4.00;2.20;;;26.50;32.20;;;;;;2241916;61;20401;-67
2022/08/21 08:39:33;0.00;0.00;0.62;0.00;0.00;0.62;3.10;1.63;;;26.50;32.70;;;;;;2241702;62;20394;-64
2022/08/21 08:42:25;0.00;0.00;0.62;0.00;0.00;0.62;3.40;1.80;;;26.50;31.80;;;;;;2241254;62;20366;-63
2022/08/21 08:45:16;0.00;0.00;0.62;0.00;0.00;0.62;4.97;2.20;;;26.60;31.90;;;;;;2241863;61;20570;-61
2022/08/21 08:48:04;0.00;0.00;0.62;0.00;0.00;0.62;2.93;2.03;;;26.60;31.70;;;;;;2241751;62;20394;-69
2022/08/21 08:50:57;0.00;0.00;0.62;0.00;0.00;0.62;3.80;1.97;;;26.60;31.70;;;;;;2241408;62;20421;-68
2022/08/21 08:53:51;0.00;0.00;0.62;0.00;0.00;0.62;3.73;2.13;;;26.70;31.60;;;;;;2241618;62;20366;-68
2022/08/21 08:56:36;0.00;0.00;0.62;0.00;0.00;0.62;3.47;2.07;;;26.70;31.50;;;;;;2241083;61;20433;-69
2022/08/21 08:59:28;0.00;0.00;0.62;0.00;0.00;0.62;5.80;2.63;;;26.70;31.60;;;;;;2242038;62;20747;-67
2022/08/21 09:02:16;0.00;0.00;0.62;0.00;0.00;0.62;3.83;2.10;;;26.80;31.50;;;;;;2241672;62;20394;-66
2022/08/21 09:05:02;0.00;0.00;0.62;0.00;0.00;0.62;2.80;1.73;;;26.80;31.20;;;;;;2243532;61;20370;-63
2022/08/21 09:08:20;0.00;0.00;0.62;0.00;0.00;0.62;4.57;2.37;;;26.80;31.20;;;;;;2241787;62;20402;-65
2022/08/21 09:11:19;0.00;0.00;0.62;0.00;0.00;0.62;3.77;2.33;;;26.90;31.30;;;;;;2241223;62;20390;-65
2022/08/21 09:14:16;0.00;0.00;0.62;0.00;0.00;0.62;3.23;2.27;;;26.90;31.30;;;;;;2241775;62;20414;-64
2022/08/21 09:17:13;0.00;0.00;0.62;0.00;0.00;0.62;4.27;1.70;;;26.90;31.30;;;;;;2241533;62;20446;-66
2022/08/21 09:20:14;0.00;0.00;0.62;0.00;0.00;0.62;4.83;2.23;;;27.00;31.40;;;;;;2241248;62;20573;-66
2022/08/21 09:23:17;0.00;0.00;0.62;0.00;0.00;0.62;4.20;2.00;;;27.00;30.90;;;;;;2242068;62;20366;-69
2022/08/21 09:26:07;0.00;0.00;0.62;0.00;0.00;0.62;5.60;2.20;;;27.00;30.70;;;;;;2241064;61;20747;-74
2022/08/21 09:28:54;0.00;0.00;0.62;0.00;0.00;0.62;4.60;2.43;;;27.00;30.70;;;;;;2241963;62;20414;-72
2022/08/21 09:31:39;0.00;0.00;0.62;0.00;0.00;0.62;3.83;1.37;;;27.00;30.70;;;;;;2241824;62;20414;-71
2022/08/21 09:34:27;0.00;0.00;0.62;0.00;0.00;0.62;2.90;1.83;;;27.10;30.90;;;;;;2243454;61;20366;-66
2022/08/21 09:37:17;0.00;0.00;0.62;0.00;0.00;0.62;2.20;1.57;;;27.10;30.80;;;;;;2241847;62;20425;-62
2022/08/21 09:40:33;0.00;0.00;0.62;0.00;0.00;0.62;3.17;2.20;;;27.10;31.50;;;;;;2241636;62;20467;-68
2022/08/21 09:43:23;0.00;0.00;0.62;0.00;0.00;0.62;5.37;2.20;;;27.20;30.80;;;;;;2241881;62;20371;-70
2022/08/21 09:46:11;0.00;0.00;0.62;0.00;0.00;0.62;7.83;2.13;;;27.20;30.70;;;;;;2241402;62;20451;-64
2022/08/21 09:48:59;0.00;0.00;0.62;0.00;0.00;0.62;5.20;2.10;;;27.20;30.70;;;;;;2241363;61;20382;-63
2022/08/21 09:51:53;0.00;0.00;0.62;0.00;0.00;0.62;4.27;2.17;;;27.20;30.80;;;;;;2242667;62;20431;-66
2022/08/21 09:54:40;0.00;0.00;0.62;0.00;0.00;0.62;2.80;1.90;;;27.20;30.60;;;;;;2242313;62;20690;-69
2022/08/21 09:57:40;0.00;0.00;0.62;0.00;0.00;0.62;3.07;2.00;;;27.30;30.70;;;;;;2512861;46;20403;-73
2022/08/21 10:00:31;0.00;0.00;0.62;0.00;0.00;0.62;5.03;2.10;;;27.30;30.60;;;;;;2238306;62;20796;-68
2022/08/21 10:03:21;0.00;0.00;0.62;0.00;0.00;0.62;3.43;2.33;;;27.30;30.40;;;;;;2237760;62;20371;-61
2022/08/21 10:06:10;0.00;0.00;0.62;0.00;0.00;0.62;2.97;1.90;;;27.40;30.50;;;;;;2240457;62;20375;-64
2022/08/21 10:09:06;0.00;0.00;0.62;0.00;0.00;0.62;2.70;1.93;;;27.40;30.70;;;;;;2242198;62;20346;-62
2022/08/21 10:12:09;0.00;0.00;0.62;0.00;0.00;0.62;3.87;2.43;;;27.40;30.60;;;;;;2241983;62;20739;-63
2022/08/21 10:15:07;0.00;0.00;0.62;0.00;0.00;0.62;5.37;2.20;;;27.50;30.30;;;;;;2242090;61;20358;-62
2022/08/21 10:18:07;0.00;0.00;0.62;0.00;0.00;0.62;4.70;2.17;;;27.50;30.20;;;;;;2241786;62;20709;-66
2022/08/21 10:21:02;0.00;0.00;0.62;0.00;0.00;0.62;3.63;2.27;;;27.50;30.00;;;;;;2242577;62;20356;-69
2022/08/21 10:24:03;0.00;0.00;0.62;0.00;0.00;0.62;2.37;1.97;;;27.60;30.20;;;;;;2242156;62;20435;-62
2022/08/21 10:26:57;0.00;0.00;0.62;0.00;0.00;0.62;3.33;2.00;;;27.60;30.20;;;;;;2241780;61;20394;-62
2022/08/21 10:29:53;0.00;0.00;0.62;0.00;0.00;0.62;3.43;1.90;;;27.60;30.00;;;;;;2242269;62;20422;-61
2022/08/21 10:33:03;0.00;0.00;0.62;0.00;0.00;0.62;3.60;2.20;;;27.70;30.20;;;;;;2241742;62;20358;-60
2022/08/21 10:36:00;0.00;0.00;0.62;0.00;0.00;0.62;5.80;2.27;;;27.70;30.10;;;;;;2242373;61;20503;-61
2022/08/21 10:39:09;0.00;0.00;0.62;0.00;0.00;0.62;3.53;2.00;;;27.70;30.00;;;;;;2242239;62;20599;-60
2022/08/21 10:42:27;0.00;0.00;0.62;0.00;0.00;0.62;3.80;2.10;;;27.70;29.90;;;;;;2242041;62;20366;-62
2022/08/21 10:45:24;0.00;0.00;0.62;0.00;0.00;0.62;5.20;1.67;;;27.80;29.70;;;;;;2241909;61;20587;-65
2022/08/21 10:48:21;0.00;0.00;0.62;0.00;0.00;0.62;2.70;2.00;;;27.80;29.60;;;;;;2241862;62;20462;-63
2022/08/21 10:51:15;0.00;0.00;0.62;0.00;0.00;0.62;5.57;2.27;;;27.80;29.30;;;;;;2242365;62;20391;-63
2022/08/21 10:54:12;0.00;0.00;0.62;0.00;0.00;0.62;3.17;1.73;;;27.90;28.90;;;;;;2242349;62;20727;-64
2022/08/21 10:57:05;0.00;0.00;0.62;0.00;0.00;0.62;4.43;2.07;;;27.90;28.70;;;;;;2242313;62;20623;-58
2022/08/21 10:59:57;0.00;0.00;0.62;0.00;0.00;0.62;3.97;1.80;;;27.90;28.30;;;;;;2241876;62;20387;-63
2022/08/21 11:02:51;0.00;0.00;0.62;0.00;0.00;0.62;7.30;1.87;;;27.90;28.50;;;;;;2241651;62;20359;-65